Time;durP1;ratioP1;P1;durP2;ratioP2;P2;SDS_P1;SDS_P2;PMS_P1;PMS_P2;Temp;Humidity;BMP_temperature;BMP_pressure;BME280_temperature;BME280_humidity;BME280_pressure;Samples;Min_cycle;Max_cycle;Signal;HPM_P1;HPM_P2
2022/01/02 00:01:45;;;;;;;2.63;1.60;;;;;;;10.30;100.00;100865.22;5045474;28;20028;-59
2022/01/02 00:04:19;;;;;;;2.50;1.42;;;;;;;10.39;100.00;100849.06;5045888;28;20317;-59
2022/01/02 00:06:47;;;;;;;3.33;1.63;;;;;;;10.43;100.00;100858.53;5046393;28;20036;-59
2022/01/02 00:09:28;;;;;;;4.10;2.00;;;;;;;10.44;100.00;100863.75;5046714;28;20058;-59
2022/01/02 00:12:05;;;;;;;2.50;1.30;;;;;;;10.50;100.00;100865.25;5046642;28;20028;-59
2022/01/02 00:14:34;;;;;;;3.40;1.77;;;;;;;10.48;100.00;100851.31;5046543;28;20093;-59
2022/01/02 00:17:02;;;;;;;6.68;2.13;;;;;;;10.11;100.00;100789.78;5047122;28;20122;-59
2022/01/02 00:19:30;;;;;;;3.00;1.80;;;;;;;10.54;100.00;100858.94;5046576;28;20142;-59
2022/01/02 00:21:59;;;;;;;4.47;1.80;;;;;;;10.59;100.00;100851.72;5046599;28;20039;-58
2022/01/02 00:24:26;;;;;;;9.55;2.10;;;;;;;10.64;100.00;100857.63;5047916;28;20024;-59
2022/01/02 00:26:54;;;;;;;5.03;2.22;;;;;;;10.73;100.00;100836.19;5050291;28;20036;-58
2022/01/02 00:29:21;;;;;;;3.97;2.22;;;;;;;10.74;100.00;100819.53;5051144;28;20024;-59
2022/01/02 00:31:47;;;;;;;6.50;1.92;;;;;;;10.84;100.00;100841.00;5050178;28;20083;-59
2022/01/02 00:34:12;;;;;;;4.78;2.22;;;;;;;10.94;100.00;100837.03;5033271;28;20909;-58
2022/01/02 00:36:38;;;;;;;4.32;2.05;;;;;;;11.05;100.00;100838.25;5049189;28;20039;-58
2022/01/02 00:39:04;;;;;;;3.80;1.80;;;;;;;11.09;100.00;100839.81;5050192;28;20976;-58
2022/01/02 00:41:35;;;;;;;4.03;1.80;;;;;;;11.14;100.00;100840.47;5050534;28;20046;-58
2022/01/02 00:44:31;;;;;;;3.80;1.60;;;;;;;11.19;100.00;100833.22;5048929;28;20024;-58
2022/01/02 00:47:08;;;;;;;4.18;2.30;;;;;;;11.24;100.00;100839.13;5050441;28;20131;-58
2022/01/02 00:49:39;;;;;;;3.97;2.08;;;;;;;11.25;100.00;100840.81;5064823;28;20359;-58
2022/01/02 00:52:10;;;;;;;4.65;1.95;;;;;;;11.25;100.00;100838.19;5049332;28;20140;-58
2022/01/02 00:54:37;;;;;;;4.32;2.42;;;;;;;11.20;100.00;100821.78;5050172;28;20040;-58
2022/01/02 00:57:05;;;;;;;9.98;1.70;;;;;;;11.20;100.00;100831.44;5049739;28;20032;-58
2022/01/02 00:59:38;;;;;;;7.40;2.55;;;;;;;11.18;100.00;100828.91;5050718;28;20024;-59
2022/01/02 01:02:04;;;;;;;4.35;2.13;;;;;;;10.75;100.00;100760.75;5068295;28;20036;-59
2022/01/02 01:04:31;;;;;;;5.20;2.10;;;;;;;11.18;100.00;100822.78;5052343;28;20028;-59
2022/01/02 01:07:02;;;;;;;7.22;2.45;;;;;;;11.19;100.00;100814.81;5049213;28;20179;-59
2022/01/02 01:09:29;;;;;;;5.40;2.50;;;;;;;11.20;100.00;100808.63;5050348;28;20032;-59
2022/01/02 01:11:59;;;;;;;5.53;2.33;;;;;;;11.24;100.00;100811.97;5048008;28;20034;-59
2022/01/02 01:14:26;;;;;;;4.88;1.73;;;;;;;11.27;100.00;100810.06;5047836;28;20987;-59
2022/01/02 01:16:52;;;;;;;2.53;1.40;;;;;;;11.33;100.00;100789.63;5049816;28;20024;-58
2022/01/02 01:19:18;;;;;;;3.95;2.03;;;;;;;11.34;100.00;100791.34;5048861;28;20048;-58
2022/01/02 01:21:43;;;;;;;8.25;2.20;;;;;;;11.34;100.00;100793.97;5047834;28;20024;-58
2022/01/02 01:24:08;;;;;;;6.97;2.05;;;;;;;11.37;100.00;100805.22;5047317;28;20047;-58
2022/01/02 01:26:34;;;;;;;5.15;2.22;;;;;;;11.37;100.00;100809.63;5047433;28;20951;-59
2022/01/02 01:29:00;;;;;;;4.75;2.50;;;;;;;11.36;100.00;100826.31;5029285;28;20151;-58
2022/01/02 01:31:25;;;;;;;4.78;2.28;;;;;;;11.36;100.00;100806.13;5047489;28;20138;-58
2022/01/02 01:33:51;;;;;;;5.45;2.45;;;;;;;11.35;100.00;100798.31;5047985;28;20127;-58
2022/01/02 01:36:16;;;;;;;3.00;1.70;;;;;;;11.32;100.00;100799.31;5046177;28;20024;-58
2022/01/02 01:38:41;;;;;;;5.05;2.28;;;;;;;11.26;100.00;100782.03;5047323;28;20024;-58
2022/01/02 01:41:11;;;;;;;9.00;1.95;;;;;;;11.19;100.00;100788.50;5047162;28;20849;-58
2022/01/02 01:43:40;;;;;;;4.43;2.25;;;;;;;11.14;100.00;100795.78;5028853;28;20016;-58
2022/01/02 01:46:06;;;;;;;4.15;1.70;;;;;;;11.10;100.00;100783.69;5046509;28;20039;-58
2022/01/02 01:48:31;;;;;;;7.65;2.05;;;;;;;11.08;100.00;100782.91;5046665;28;20016;-59
2022/01/02 01:50:57;;;;;;;3.30;1.67;;;;;;;11.02;100.00;100770.00;5046888;28;20541;-59
2022/01/02 01:53:23;;;;;;;7.03;2.45;;;;;;;10.99;100.00;100806.97;5046259;28;20914;-59
2022/01/02 01:55:48;;;;;;;5.53;2.53;;;;;;;10.94;100.00;100792.34;5047018;28;20132;-59
2022/01/02 01:58:14;;;;;;;6.88;2.60;;;;;;;10.85;100.00;100777.81;5046488;28;20543;-59
2022/01/02 02:00:39;;;;;;;6.22;2.72;;;;;;;10.76;100.00;100783.50;5063329;28;20051;-59
2022/01/02 02:03:05;;;;;;;6.07;2.72;;;;;;;10.70;100.00;100789.88;5049032;28;20024;-58
2022/01/02 02:05:31;;;;;;;4.80;2.25;;;;;;;10.64;100.00;100774.41;5046896;28;20108;-58
2022/01/02 02:07:56;;;;;;;6.20;2.45;;;;;;;10.55;100.00;100759.03;5046222;28;20031;-58
2022/01/02 02:10:29;;;;;;;4.72;2.22;;;;;;;10.44;100.00;100724.50;5046418;28;20894;-58
2022/01/02 02:12:56;;;;;;;4.45;2.22;;;;;;;10.39;100.00;100723.00;5046244;28;20039;-58
2022/01/02 02:15:22;;;;;;;4.18;2.53;;;;;;;10.29;100.00;100725.16;5046431;28;20032;-58
2022/01/02 02:17:49;;;;;;;4.70;2.10;;;;;;;10.20;100.00;100730.84;5046462;28;20884;-59
2022/01/02 02:20:14;;;;;;;7.25;2.90;;;;;;;10.09;100.00;100731.25;5046598;28;20174;-59
2022/01/02 02:22:41;;;;;;;5.55;1.92;;;;;;;9.58;100.00;100663.44;5046343;28;20913;-59
2022/01/02 02:25:08;;;;;;;4.82;2.60;;;;;;;9.57;100.00;100674.00;5046006;28;20032;-59
2022/01/02 02:27:33;;;;;;;13.50;2.92;;;;;;;9.94;100.00;100737.13;5029193;28;20032;-59
2022/01/02 02:29:59;;;;;;;5.93;2.30;;;;;;;9.83;100.00;100720.16;5028919;28;20035;-59
2022/01/02 02:32:25;;;;;;;4.63;2.00;;;;;;;9.86;100.00;100731.38;5046003;28;20828;-60
2022/01/02 02:34:50;;;;;;;6.03;2.35;;;;;;;9.80;100.00;100726.38;5027645;28;20020;-59
2022/01/02 02:37:15;;;;;;;8.82;2.25;;;;;;;9.80;100.00;100731.59;5046037;28;20035;-59
2022/01/02 02:39:41;;;;;;;4.68;2.20;;;;;;;9.79;100.00;100726.44;5045636;28;20791;-59
2022/01/02 02:42:14;;;;;;;6.65;2.70;;;;;;;9.74;100.00;100711.72;5046295;28;20896;-59
2022/01/02 02:44:40;;;;;;;5.73;2.70;;;;;;;9.74;100.00;100716.97;5045547;28;20024;-58
2022/01/02 02:49:50;;;;;;;6.65;2.85;;;;;;;9.74;100.00;100716.13;5046279;28;20109;-58
2022/01/02 02:52:31;;;;;;;8.30;2.33;;;;;;;9.63;100.00;100698.19;5045830;28;20075;-58
2022/01/02 02:54:56;;;;;;;5.55;2.58;;;;;;;9.73;100.00;100719.69;5045923;28;20126;-58
2022/01/02 02:57:22;;;;;;;7.07;2.88;;;;;;;9.73;100.00;100714.44;5045733;28;20090;-58
2022/01/02 02:59:47;;;;;;;8.20;3.22;;;;;;;9.45;100.00;100671.88;5045775;28;20130;-58
2022/01/02 03:02:13;;;;;;;6.80;3.33;;;;;;;9.75;100.00;100709.97;5045649;28;20027;-58
2022/01/02 03:04:38;;;;;;;6.15;2.95;;;;;;;9.76;100.00;100709.06;5046583;28;20812;-58
2022/01/02 03:07:03;;;;;;;9.13;2.90;;;;;;;9.79;100.00;100706.31;5045255;28;20024;-58
2022/01/02 03:09:40;;;;;;;7.53;3.63;;;;;;;9.80;100.00;100694.88;5027801;28;20143;-58
2022/01/02 03:12:07;;;;;;;6.53;2.50;;;;;;;9.83;100.00;100684.28;5045474;28;20075;-58
2022/01/02 03:14:32;;;;;;;7.70;2.75;;;;;;;9.85;100.00;100682.41;5045312;28;20031;-59
2022/01/02 03:16:58;;;;;;;7.53;3.00;;;;;;;9.86;100.00;100683.28;5041257;28;20035;-58
2022/01/02 03:19:23;;;;;;;4.93;2.58;;;;;;;9.89;100.00;100683.16;5045172;28;20062;-58
2022/01/02 03:21:49;;;;;;;4.72;2.47;;;;;;;9.91;100.00;100678.66;5045909;28;20094;-59
2022/01/02 03:24:14;;;;;;;5.75;2.58;;;;;;;9.92;100.00;100686.50;5045615;28;20238;-58
2022/01/02 03:26:40;;;;;;;6.40;2.95;;;;;;;9.95;100.00;100672.38;5045640;28;20035;-58
2022/01/02 03:29:05;;;;;;;8.95;2.63;;;;;;;9.96;100.00;100674.94;5045285;28;20034;-58
2022/01/02 03:31:30;;;;;;;3.85;2.15;;;;;;;9.57;100.00;100613.66;5046116;28;20884;-59
2022/01/02 03:33:56;;;;;;;4.65;2.38;;;;;;;9.97;100.00;100681.88;5045478;28;20073;-58
2022/01/02 03:36:22;;;;;;;7.22;2.75;;;;;;;9.94;100.00;100682.03;5045011;28;20932;-59
2022/01/02 03:38:47;;;;;;;5.72;2.65;;;;;;;9.84;100.00;100654.47;5045041;28;20960;-58
2022/01/02 03:41:13;;;;;;;4.60;2.50;;;;;;;10.02;100.00;100674.69;5045215;28;20036;-59
2022/01/02 03:43:38;;;;;;;4.78;2.45;;;;;;;10.02;100.00;100672.06;5044885;28;21001;-59
2022/01/02 03:46:04;;;;;;;5.32;2.80;;;;;;;10.03;100.00;100670.28;5045138;28;20086;-58
2022/01/02 03:48:31;;;;;;;6.25;2.42;;;;;;;10.03;100.00;100665.91;5045280;28;20779;-58
2022/01/02 03:50:56;;;;;;;5.25;2.22;;;;;;;9.90;100.00;100633.19;5045413;28;20077;-58
2022/01/02 03:53:21;;;;;;;6.90;2.95;;;;;;;9.99;100.00;100650.34;5045024;28;20849;-57
2022/01/02 03:55:47;;;;;;;8.68;2.97;;;;;;;9.66;100.00;100602.78;5046658;28;20055;-58
2022/01/02 03:58:13;;;;;;;6.75;2.42;;;;;;;9.95;100.00;100652.22;5046894;28;20055;-58
2022/01/02 04:00:38;;;;;;;3.95;2.17;;;;;;;9.86;100.00;100636.91;5049805;28;20248;-58
2022/01/02 04:03:03;;;;;;;5.30;2.72;;;;;;;9.91;100.00;100650.66;5050800;28;20024;-58
2022/01/02 04:05:29;;;;;;;4.65;2.25;;;;;;;9.87;100.00;100643.00;5049821;28;20027;-58
2022/01/02 04:07:54;;;;;;;7.10;2.70;;;;;;;9.88;100.00;100648.16;5050621;28;20047;-58
2022/01/02 04:10:19;;;;;;;10.38;2.95;;;;;;;9.89;100.00;100649.03;5049279;28;20028;-57
2022/01/02 04:12:45;;;;;;;4.95;2.53;;;;;;;9.76;100.00;100617.22;5049369;28;20056;-58
2022/01/02 04:15:12;;;;;;;8.05;2.92;;;;;;;9.86;100.00;100631.66;5050837;28;20785;-58
2022/01/02 04:17:39;;;;;;;3.70;2.35;;;;;;;9.86;100.00;100636.91;5051030;28;20024;-59
2022/01/02 04:20:06;;;;;;;4.72;2.42;;;;;;;9.85;100.00;100635.19;5050579;28;20039;-59
2022/01/02 04:22:32;;;;;;;5.57;2.40;;;;;;;9.82;100.00;100619.56;5049379;28;20036;-58
2022/01/02 04:24:58;;;;;;;5.93;2.80;;;;;;;9.80;100.00;100616.13;5049396;28;20131;-59
2022/01/02 04:27:24;;;;;;;10.65;2.80;;;;;;;9.35;100.00;100534.19;5050428;28;20565;-59
2022/01/02 04:29:49;;;;;;;8.65;2.45;;;;;;;9.82;100.00;100603.81;5065970;28;20134;-59
2022/01/02 04:32:15;;;;;;;6.90;2.20;;;;;;;9.82;100.00;100601.19;5050277;28;20032;-59
2022/01/02 04:34:41;;;;;;;8.38;2.75;;;;;;;9.81;100.00;100593.38;5049069;28;20816;-59
2022/01/02 04:37:07;;;;;;;6.15;2.92;;;;;;;9.80;100.00;100603.03;5049604;28;20059;-58
2022/01/02 04:39:33;;;;;;;7.93;2.25;;;;;;;9.62;100.00;100559.25;5050807;28;20903;-58
2022/01/02 04:41:58;;;;;;;9.02;2.42;;;;;;;9.80;100.00;100579.41;5032768;28;20945;-57
2022/01/02 04:44:24;;;;;;;5.38;2.88;;;;;;;9.79;100.00;100571.63;5049742;28;20028;-57
2022/01/02 04:46:49;;;;;;;3.92;2.40;;;;;;;9.77;100.00;100569.03;5048501;28;20020;-57
2022/01/02 04:49:14;;;;;;;8.27;2.55;;;;;;;9.77;100.00;100563.78;5050221;28;20131;-57
2022/01/02 04:51:40;;;;;;;4.07;2.10;;;;;;;9.77;100.00;100560.34;5051125;28;20028;-58
2022/01/02 04:54:05;;;;;;;5.97;2.72;;;;;;;9.48;100.00;100509.16;5049932;28;20871;-58
2022/01/02 04:56:31;;;;;;;6.65;2.20;;;;;;;9.74;100.00;100554.28;5049402;28;21065;-58
2022/01/02 04:58:56;;;;;;;5.85;2.63;;;;;;;9.75;100.00;100547.28;5050406;28;20916;-58
2022/01/02 05:01:22;;;;;;;14.23;2.97;;;;;;;9.73;100.00;100551.75;5050214;28;20870;-58
2022/01/02 05:03:47;;;;;;;6.93;2.67;;;;;;;9.60;100.00;100525.19;5048353;28;20024;-58
2022/01/02 05:06:12;;;;;;;5.18;2.78;;;;;;;9.35;100.00;100492.25;5048504;28;20066;-57
2022/01/02 05:08:38;;;;;;;6.50;2.85;;;;;;;9.69;100.00;100537.06;5049923;28;20020;-57
2022/01/02 05:11:04;;;;;;;5.38;2.60;;;;;;;9.67;100.00;100546.75;5048377;28;20028;-57
2022/01/02 05:13:29;;;;;;;8.82;2.90;;;;;;;9.65;100.00;100532.88;5048863;28;20028;-57
2022/01/02 05:15:54;;;;;;;4.25;2.92;;;;;;;9.63;100.00;100518.97;5051410;28;20936;-57
2022/01/02 05:18:20;;;;;;;5.70;2.95;;;;;;;9.63;100.00;100545.22;5051708;28;20030;-57
2022/01/02 05:20:46;;;;;;;6.50;2.60;;;;;;;9.60;100.00;100532.19;5050719;28;20999;-57
2022/01/02 05:23:21;;;;;;;6.10;3.03;;;;;;;9.57;100.00;100527.94;5050134;28;20035;-57
2022/01/02 05:25:47;;;;;;;4.15;2.28;;;;;;;9.57;100.00;100516.59;5049726;28;20028;-56
2022/01/02 05:28:13;;;;;;;5.82;2.58;;;;;;;9.55;100.00;100510.59;5048208;28;20910;-56
2022/01/02 05:30:38;;;;;;;4.07;2.35;;;;;;;9.53;100.00;100491.44;5048981;28;20032;-57
2022/01/02 05:33:04;;;;;;;7.05;2.70;;;;;;;9.51;100.00;100501.13;5049089;28;20140;-57
2022/01/02 05:35:31;;;;;;;5.40;2.65;;;;;;;9.48;100.00;100493.41;5049999;28;20835;-58
2022/01/02 05:37:57;;;;;;;4.05;2.22;;;;;;;9.47;100.00;100496.94;5047650;28;20024;-58
2022/01/02 05:40:22;;;;;;;8.05;2.45;;;;;;;9.45;100.00;100504.91;5047841;28;20028;-58
2022/01/02 05:42:48;;;;;;;7.00;2.78;;;;;;;9.44;100.00;100505.81;5048870;28;20062;-58
2022/01/02 05:45:13;;;;;;;7.13;2.90;;;;;;;9.45;100.00;100504.91;5048316;28;20024;-58
2022/01/02 05:47:39;;;;;;;6.55;2.75;;;;;;;9.45;100.00;100498.78;5047800;28;20893;-58
2022/01/02 05:50:06;;;;;;;5.32;2.63;;;;;;;9.48;100.00;100498.66;5047948;28;20023;-58
2022/01/02 05:52:31;;;;;;;5.70;2.80;;;;;;;9.49;100.00;100484.63;5047130;28;20016;-58
2022/01/02 05:54:57;;;;;;;7.55;2.90;;;;;;;9.50;100.00;100481.06;5047090;28;20818;-59
2022/01/02 05:57:23;;;;;;;5.28;2.80;;;;;;;9.50;100.00;100478.44;5048524;28;20032;-59
2022/01/02 05:59:48;;;;;;;6.10;2.63;;;;;;;9.49;100.00;100468.91;5048847;28;20027;-59
2022/01/02 06:02:14;;;;;;;5.55;2.90;;;;;;;9.48;100.00;100460.16;5047654;28;20225;-58
2022/01/02 06:04:39;;;;;;;4.95;2.40;;;;;;;9.49;100.00;100461.03;5047799;28;20028;-58
2022/01/02 06:07:05;;;;;;;7.43;3.00;;;;;;;9.46;100.00;100448.06;5049327;28;20903;-59
2022/01/02 06:09:30;;;;;;;6.15;2.90;;;;;;;9.48;100.00;100448.81;5047781;28;20031;-58
2022/01/02 06:11:55;;;;;;;9.75;2.55;;;;;;;9.46;100.00;100432.31;5048431;28;20126;-59
2022/01/02 06:14:22;;;;;;;8.05;3.33;;;;;;;9.31;100.00;100396.28;5047086;28;20031;-58
2022/01/02 06:16:47;;;;;;;4.72;2.53;;;;;;;9.42;100.00;100417.63;5047080;28;20035;-58
2022/01/02 06:19:12;;;;;;;5.32;2.78;;;;;;;9.41;100.00;100394.94;5046498;28;20138;-58
2022/01/02 06:21:38;;;;;;;3.83;2.35;;;;;;;9.40;100.00;100374.88;5046439;28;20028;-58
2022/01/02 06:24:03;;;;;;;5.28;2.20;;;;;;;9.39;100.00;100378.44;5046818;28;20038;-59
2022/01/02 06:26:29;;;;;;;6.03;2.42;;;;;;;9.00;100.00;100311.16;5046556;28;20050;-58
2022/01/02 06:28:54;;;;;;;4.90;2.10;;;;;;;9.37;100.00;100348.78;5046330;28;20549;-59
2022/01/02 06:31:20;;;;;;;3.47;2.13;;;;;;;9.36;100.00;100355.81;5044903;28;20090;-58
2022/01/02 06:33:45;;;;;;;5.32;2.33;;;;;;;9.38;100.00;100355.75;5045994;28;20773;-58
2022/01/02 06:36:10;;;;;;;3.83;2.00;;;;;;;9.35;100.00;100350.66;5046262;28;20028;-59
2022/01/02 06:38:36;;;;;;;8.13;2.67;;;;;;;9.36;100.00;100353.19;5045708;28;21007;-59
2022/01/02 06:41:01;;;;;;;3.72;1.88;;;;;;;8.96;100.00;100286.00;5046021;28;20023;-58
2022/01/02 06:43:27;;;;;;;4.57;2.22;;;;;;;9.39;100.00;100346.97;5047952;28;20028;-59
2022/01/02 06:45:52;;;;;;;10.93;2.42;;;;;;;9.48;100.00;100359.66;5046850;28;20039;-59
2022/01/02 06:48:17;;;;;;;3.58;2.22;;;;;;;9.59;100.00;100355.63;5048081;28;20061;-59
2022/01/02 06:50:43;;;;;;;6.25;2.10;;;;;;;9.66;100.00;100341.28;5047252;28;20024;-59
2022/01/02 06:53:09;;;;;;;3.53;2.00;;;;;;;9.78;100.00;100337.22;5046919;28;20861;-59
2022/01/02 06:55:35;;;;;;;6.00;2.13;;;;;;;9.77;100.00;100306.66;5046270;28;20865;-59
2022/01/02 06:58:00;;;;;;;3.75;1.92;;;;;;;9.96;100.00;100299.59;5045701;28;20845;-59
2022/01/02 07:00:26;;;;;;;3.58;1.75;;;;;;;9.98;100.00;100305.59;5045270;28;20873;-59
2022/01/02 07:02:51;;;;;;;3.17;1.50;;;;;;;9.99;100.00;100283.69;5044993;28;20078;-58
2022/01/02 07:05:17;;;;;;;2.60;1.58;;;;;;;9.98;100.00;100261.00;5044701;28;20028;-59
2022/01/02 07:07:44;;;;;;;6.57;1.92;;;;;;;9.95;100.00;100261.16;5044858;28;20131;-58
2022/01/02 07:10:10;;;;;;;5.13;1.67;;;;;;;10.00;100.00;100253.06;5055120;28;20028;-59
2022/01/02 07:12:36;;;;;;;3.20;1.27;;;;;;;10.04;100.00;100252.81;5087817;28;20808;-59
2022/01/02 07:15:02;;;;;;;3.65;1.67;;;;;;;10.10;100.00;100247.25;5087757;28;20081;-59
2022/01/02 07:17:28;;;;;;;3.83;1.80;;;;;;;10.12;100.00;100245.41;5086697;28;20032;-59
2022/01/02 07:19:53;;;;;;;4.15;1.63;;;;;;;10.15;100.00;100240.03;5085043;28;20032;-58
2022/01/02 07:22:18;;;;;;;2.95;1.40;;;;;;;10.20;100.00;100224.91;5087326;28;20134;-58
2022/01/02 07:24:50;;;;;;;4.07;1.55;;;;;;;10.26;100.00;100213.22;5087716;28;20055;-59
2022/01/02 07:27:16;;;;;;;6.25;1.80;;;;;;;10.16;100.00;100183.97;5085097;28;20032;-59
2022/01/02 07:29:41;;;;;;;3.58;1.45;;;;;;;10.36;100.00;100206.56;5085485;28;20859;-60
2022/01/02 07:32:06;;;;;;;4.75;1.92;;;;;;;10.41;100.00;100198.44;5084819;28;20135;-59
2022/01/02 07:34:32;;;;;;;2.92;1.23;;;;;;;10.45;100.00;100199.97;5054169;28;20197;-59
2022/01/02 07:36:57;;;;;;;2.28;1.20;;;;;;;10.49;100.00;100197.09;5044231;28;20030;-58
2022/01/02 07:39:22;;;;;;;3.83;1.48;;;;;;;10.50;100.00;100190.06;5043947;28;20027;-59
2022/01/02 07:41:48;;;;;;;2.83;1.33;;;;;;;10.53;100.00;100192.53;5044655;28;20926;-59
2022/01/02 07:44:13;;;;;;;2.95;1.23;;;;;;;10.56;100.00;100189.75;5060940;28;20031;-59
2022/01/02 07:46:39;;;;;;;13.57;1.40;;;;;;;10.59;100.00;100189.56;5046156;28;20028;-59
2022/01/02 07:49:04;;;;;;;8.57;1.55;;;;;;;10.64;100.00;100195.44;5044671;28;20920;-59
2022/01/02 07:51:29;;;;;;;3.10;1.35;;;;;;;10.69;100.00;100188.16;5045508;28;20079;-58
2022/01/02 07:53:55;;;;;;;4.05;1.73;;;;;;;10.82;100.00;100181.28;5043911;28;20983;-58
2022/01/02 07:56:20;;;;;;;3.90;1.58;;;;;;;10.93;100.00;100217.50;5044152;28;20028;-58
2022/01/02 07:58:46;;;;;;;2.40;1.27;;;;;;;11.02;100.00;100206.47;5046809;28;20105;-58
2022/01/02 08:01:11;;;;;;;8.20;1.67;;;;;;;11.10;100.00;100231.44;5044891;28;20889;-58
2022/01/02 08:03:37;;;;;;;6.68;1.25;;;;;;;11.21;100.00;100234.34;5045176;28;20031;-58
2022/01/02 08:06:02;;;;;;;2.90;1.33;;;;;;;11.29;100.00;100245.25;5046639;28;20899;-58
2022/01/02 08:08:28;;;;;;;3.85;1.75;;;;;;;11.41;100.00;100237.63;5045187;28;20103;-58
2022/01/02 08:10:53;;;;;;;3.72;1.63;;;;;;;11.47;100.00;100250.44;5046372;28;20035;-58
2022/01/02 08:13:18;;;;;;;4.22;1.55;;;;;;;11.53;100.00;100239.56;5045772;28;20939;-58
2022/01/02 08:15:44;;;;;;;5.65;1.67;;;;;;;11.52;100.00;100248.41;5044578;28;20264;-58
2022/01/02 08:18:13;;;;;;;4.22;1.70;;;;;;;11.27;100.00;100185.78;5045223;28;20812;-58
2022/01/02 08:20:40;;;;;;;5.70;1.83;;;;;;;11.66;100.00;100261.63;5044468;28;20178;-58
2022/01/02 08:23:05;;;;;;;6.90;1.42;;;;;;;11.69;100.00;100264.09;5045189;28;20560;-58
2022/01/02 08:25:30;;;;;;;3.45;1.67;;;;;;;11.78;100.00;100255.69;5046492;28;20020;-58
2022/01/02 08:27:56;;;;;;;4.35;1.77;;;;;;;11.85;100.00;100262.31;5044693;28;20042;-58
2022/01/02 08:30:21;;;;;;;4.20;1.88;;;;;;;11.91;100.00;100272.47;5046198;28;20790;-58
2022/01/02 08:32:46;;;;;;;5.00;1.40;;;;;;;12.00;100.00;100279.84;5046475;28;20020;-58
2022/01/02 08:35:12;;;;;;;3.97;1.45;;;;;;;12.06;100.00;100276.00;5046182;28;20032;-58
2022/01/02 08:37:39;;;;;;;4.20;1.88;;;;;;;12.09;100.00;100274.06;5046340;28;20865;-58
2022/01/02 08:40:05;;;;;;;5.30;1.38;;;;;;;12.16;100.00;100278.03;5045335;28;20020;-58
2022/01/02 08:42:30;;;;;;;8.43;1.58;;;;;;;12.27;100.00;100269.47;5048022;28;20576;-58
2022/01/02 08:44:55;;;;;;;7.60;1.52;;;;;;;12.11;100.00;100280.06;5046944;28;20099;-58
2022/01/02 08:47:21;;;;;;;3.58;1.73;;;;;;;11.49;100.00;100267.81;5050886;28;20876;-58
2022/01/02 08:49:46;;;;;;;6.05;1.50;;;;;;;11.26;100.00;100284.03;5049823;28;20756;-58
2022/01/02 08:52:12;;;;;;;4.45;1.88;;;;;;;11.27;100.00;100283.97;5050641;28;20101;-58
2022/01/02 08:54:38;;;;;;;7.13;2.30;;;;;;;11.48;100.00;100262.66;5050977;28;20027;-58
2022/01/02 08:57:04;;;;;;;4.32;1.80;;;;;;;11.45;100.00;100262.84;5049432;28;20039;-58
2022/01/02 08:59:29;;;;;;;4.47;1.50;;;;;;;11.68;100.00;100278.19;5049698;28;20032;-58
2022/01/02 09:01:55;;;;;;;3.42;1.80;;;;;;;11.78;100.00;100279.38;5050810;28;20024;-58
2022/01/02 09:04:21;;;;;;;4.55;2.00;;;;;;;11.82;100.00;100267.75;5050693;28;20892;-58
2022/01/02 09:06:46;;;;;;;2.95;1.38;;;;;;;11.92;100.00;100257.53;5050468;28;20046;-58
2022/01/02 09:09:12;;;;;;;2.92;1.70;;;;;;;11.98;100.00;100268.56;5049890;28;20032;-58
2022/01/02 09:11:37;;;;;;;4.70;1.67;;;;;;;11.84;100.00;100239.53;5050813;28;20827;-58
2022/01/02 09:14:03;;;;;;;4.28;1.55;;;;;;;12.06;100.00;100276.00;5049512;28;20031;-58
2022/01/02 09:16:29;;;;;;;3.28;1.88;;;;;;;12.08;100.00;100280.25;5049849;28;20121;-58
2022/01/02 09:18:55;;;;;;;5.78;1.90;;;;;;;11.95;100.00;100242.41;5050448;28;20039;-59
2022/01/02 09:21:20;;;;;;;10.43;2.53;;;;;;;12.11;100.00;100260.78;5032109;28;20039;-58
2022/01/02 09:23:46;;;;;;;6.68;3.17;;;;;;;12.09;100.00;100286.38;5049589;28;20028;-58
2022/01/02 09:26:11;;;;;;;3.30;1.80;;;;;;;12.09;100.00;100297.75;5050041;28;20024;-58
2022/01/02 09:28:37;;;;;;;4.78;1.80;;;;;;;12.11;100.00;100285.34;5050016;28;20947;-58
2022/01/02 09:31:02;;;;;;;7.40;2.30;;;;;;;12.14;100.00;100297.47;5051284;28;20027;-58
2022/01/02 09:33:28;;;;;;;3.72;2.00;;;;;;;12.09;100.00;100295.13;5050925;28;20905;-58
2022/01/02 09:35:53;;;;;;;4.55;2.05;;;;;;;12.17;100.00;100316.59;5052389;28;20051;-58
2022/01/02 09:38:19;;;;;;;3.38;2.05;;;;;;;12.18;100.00;100313.03;5049024;28;20845;-59
2022/01/02 09:40:44;;;;;;;4.60;2.53;;;;;;;12.20;100.00;100311.13;5050242;28;20092;-58
2022/01/02 09:43:09;;;;;;;4.45;2.30;;;;;;;12.17;100.00;100300.78;5049298;28;20272;-58
2022/01/02 09:45:38;;;;;;;8.10;2.92;;;;;;;12.14;100.00;100308.84;5048720;28;20035;-58
2022/01/02 09:48:05;;;;;;;4.10;2.25;;;;;;;12.13;100.00;100312.41;5048451;28;20229;-58
2022/01/02 09:50:31;;;;;;;3.70;1.80;;;;;;;12.16;100.00;100320.19;5047923;28;20060;-59
2022/01/02 09:52:57;;;;;;;6.55;2.38;;;;;;;12.13;100.00;100315.06;5047407;28;20036;-59
2022/01/02 09:55:22;;;;;;;3.65;2.17;;;;;;;12.14;100.00;100315.91;5046495;28;20094;-58
2022/01/02 09:57:48;;;;;;;5.97;2.60;;;;;;;12.13;100.00;100325.59;5045577;28;20040;-58
2022/01/02 10:00:15;;;;;;;3.35;1.83;;;;;;;12.08;100.00;100322.38;5046698;28;20028;-59
2022/01/02 10:03:04;;;;;;;12.35;3.05;;;;;;;11.97;100.00;100303.72;5047223;28;20020;-58
2022/01/02 10:05:50;;;;;;;6.50;2.13;;;;;;;11.93;100.00;100317.97;5046633;28;20911;-59
2022/01/02 10:08:22;;;;;;;6.00;2.88;;;;;;;11.81;100.00;100307.31;5047931;28;20047;-58
2022/01/02 10:10:47;;;;;;;5.45;2.72;;;;;;;12.00;100.00;100318.47;5048819;28;20135;-59
2022/01/02 10:13:12;;;;;;;5.78;3.03;;;;;;;12.09;100.00;100307.44;5049010;28;20036;-59
2022/01/02 10:15:38;;;;;;;6.47;2.50;;;;;;;12.18;100.00;100318.28;5031571;28;20032;-59
2022/01/02 10:18:08;;;;;;;32.78;9.75;;;;;;;12.16;100.00;100301.75;5047279;28;20028;-60
2022/01/02 10:20:47;;;;;;;3.85;2.30;;;;;;;12.35;100.00;100303.28;5047314;28;20038;-60
2022/01/02 10:23:20;;;;;;;4.20;2.50;;;;;;;12.55;100.00;100305.56;5048652;28;20121;-60
2022/01/02 10:25:55;;;;;;;6.43;3.70;;;;;;;12.65;100.00;100306.72;5047347;28;20043;-62
2022/01/02 10:28:26;;;;;;;6.45;2.83;;;;;;;12.61;100.00;100302.56;5046095;28;20028;-60
2022/01/02 10:31:12;;;;;;;6.82;2.80;;;;;;;12.61;100.00;100305.19;5047390;28;20068;-59
2022/01/02 10:33:57;;;;;;;5.20;3.00;;;;;;;12.51;100.00;100306.69;5047525;28;20031;-60
2022/01/02 10:36:31;;;;;;;6.47;2.90;;;;;;;12.49;100.00;100314.72;5048314;28;20028;-60
2022/01/02 10:39:20;;;;;;;6.95;2.60;;;;;;;12.44;100.00;100319.38;5048309;28;20021;-61
2022/01/02 10:41:52;;;;;;;5.45;3.00;;;;;;;12.53;100.00;100307.47;5031379;28;20032;-58
2022/01/02 10:44:20;;;;;;;4.68;2.63;;;;;;;12.58;100.00;100310.66;5048393;28;20982;-60
2022/01/02 10:47:11;;;;;;;6.15;3.25;;;;;;;12.56;100.00;100307.28;5045924;28;20897;-60
2022/01/02 10:49:47;;;;;;;6.70;2.90;;;;;;;12.34;100.00;100276.06;5045174;28;20066;-59
2022/01/02 10:52:39;;;;;;;7.68;2.95;;;;;;;12.50;100.00;100302.38;5043691;28;20177;-60
2022/01/02 10:55:12;;;;;;;6.43;3.05;;;;;;;12.53;100.00;100304.84;5044988;28;20932;-60
2022/01/02 10:57:39;;;;;;;4.80;2.65;;;;;;;12.52;100.00;100300.50;5043668;28;20031;-60
2022/01/02 11:00:06;;;;;;;4.75;2.60;;;;;;;12.57;100.00;100303.72;5045848;28;20040;-60
2022/01/02 11:02:31;;;;;;;8.27;3.08;;;;;;;12.41;100.00;100298.50;5046078;28;20060;-59
2022/01/02 11:05:09;;;;;;;7.57;2.88;;;;;;;12.45;100.00;100304.44;5045897;28;20028;-61
2022/01/02 11:07:44;;;;;;;5.18;2.40;;;;;;;12.43;100.00;100295.78;5091571;28;20039;-59
2022/01/02 11:10:12;;;;;;;4.80;2.55;;;;;;;12.43;100.00;100314.22;5093095;28;20043;-61
2022/01/02 11:12:42;;;;;;;5.63;2.85;;;;;;;12.38;100.00;100308.34;5092970;28;20028;-59
2022/01/02 11:15:09;;;;;;;4.60;2.38;;;;;;;12.36;100.00;100302.34;5092754;28;20027;-61
2022/01/02 11:17:36;;;;;;;4.63;2.90;;;;;;;12.34;100.00;100305.06;5092645;28;20077;-60
2022/01/02 11:20:05;;;;;;;4.97;2.65;;;;;;;12.34;100.00;100296.28;5093788;28;20093;-59
2022/01/02 11:22:58;;;;;;;7.97;3.08;;;;;;;12.36;100.00;100291.81;5092088;28;20024;-59